sensor_id;sensor_type;location;lat;lon;timestamp;temperature;humidity
20670;DHT22;10494;50.868;4.180;2023-12-14T00:01:52;8.70;99.90
20670;DHT22;10494;50.868;4.180;2023-12-14T00:04:18;8.80;99.90
20670;DHT22;10494;50.868;4.180;2023-12-14T00:06:43;8.80;99.90
20670;DHT22;10494;50.868;4.180;2023-12-14T00:09:09;8.80;99.90
20670;DHT22;10494;50.868;4.180;2023-12-14T00:11:41;8.80;99.90
20670;DHT22;10494;50.868;4.180;2023-12-14T00:14:06;8.90;99.90
20670;DHT22;10494;50.868;4.180;2023-12-14T00:16:32;8.90;99.90
20670;DHT22;10494;50.868;4.180;2023-12-14T00:18:58;8.90;99.90
20670;DHT22;10494;50.868;4.180;2023-12-14T00:21:23;8.80;99.90
20670;DHT22;10494;50.868;4.180;2023-12-14T00:23:49;9.00;99.90
20670;DHT22;10494;50.868;4.180;2023-12-14T00:26:15;9.10;99.90
20670;DHT22;10494;50.868;4.180;2023-12-14T00:28:42;9.20;99.90
20670;DHT22;10494;50.868;4.180;2023-12-14T00:31:07;9.40;99.90
20670;DHT22;10494;50.868;4.180;2023-12-14T00:33:33;9.50;99.90
20670;DHT22;10494;50.868;4.180;2023-12-14T00:35:59;9.50;99.90
20670;DHT22;10494;50.868;4.180;2023-12-14T00:38:24;9.60;99.90
20670;DHT22;10494;50.868;4.180;2023-12-14T00:40:50;9.60;99.90
20670;DHT22;10494;50.868;4.180;2023-12-14T00:43:15;9.20;99.90
20670;DHT22;10494;50.868;4.180;2023-12-14T00:45:41;9.20;99.90
20670;DHT22;10494;50.868;4.180;2023-12-14T00:48:07;9.10;99.90
20670;DHT22;10494;50.868;4.180;2023-12-14T00:50:32;9.00;99.90
20670;DHT22;10494;50.868;4.180;2023-12-14T00:52:58;9.00;99.90
20670;DHT22;10494;50.868;4.180;2023-12-14T00:55:24;9.00;99.90
20670;DHT22;10494;50.868;4.180;2023-12-14T00:57:49;9.10;99.90
20670;DHT22;10494;50.868;4.180;2023-12-14T01:00:15;9.10;99.90
20670;DHT22;10494;50.868;4.180;2023-12-14T01:02:41;9.10;99.90
20670;DHT22;10494;50.868;4.180;2023-12-14T01:05:07;9.20;99.90
20670;DHT22;10494;50.868;4.180;2023-12-14T01:07:32;9.10;99.90
20670;DHT22;10494;50.868;4.180;2023-12-14T01:09:58;9.10;99.90
20670;DHT22;10494;50.868;4.180;2023-12-14T01:12:24;9.00;99.90
20670;DHT22;10494;50.868;4.180;2023-12-14T01:14:49;8.90;99.90
20670;DHT22;10494;50.868;4.180;2023-12-14T01:17:15;8.80;99.90
20670;DHT22;10494;50.868;4.180;2023-12-14T01:19:40;8.70;99.90
20670;DHT22;10494;50.868;4.180;2023-12-14T01:22:07;8.70;99.90
20670;DHT22;10494;50.868;4.180;2023-12-14T01:24:33;8.70;99.90
20670;DHT22;10494;50.868;4.180;2023-12-14T01:26:58;8.70;99.90
20670;DHT22;10494;50.868;4.180;2023-12-14T01:29:24;8.60;99.90
20670;DHT22;10494;50.868;4.180;2023-12-14T01:31:50;8.60;99.90
20670;DHT22;10494;50.868;4.180;2023-12-14T01:34:16;8.70;99.90
20670;DHT22;10494;50.868;4.180;2023-12-14T01:36:42;8.60;99.90
20670;DHT22;10494;50.868;4.180;2023-12-14T01:39:08;8.70;99.90
20670;DHT22;10494;50.868;4.180;2023-12-14T01:41:33;8.80;99.90
20670;DHT22;10494;50.868;4.180;2023-12-14T01:43:59;8.80;99.90
20670;DHT22;10494;50.868;4.180;2023-12-14T01:46:25;8.80;99.90
20670;DHT22;10494;50.868;4.180;2023-12-14T01:48:50;8.90;99.90
20670;DHT22;10494;50.868;4.180;2023-12-14T01:51:18;8.70;99.90
20670;DHT22;10494;50.868;4.180;2023-12-14T01:53:44;8.70;99.90
20670;DHT22;10494;50.868;4.180;2023-12-14T01:56:10;8.60;99.90
20670;DHT22;10494;50.868;4.180;2023-12-14T01:58:36;8.60;99.90
20670;DHT22;10494;50.868;4.180;2023-12-14T02:03:46;8.60;99.90
20670;DHT22;10494;50.868;4.180;2023-12-14T02:06:12;8.60;99.90
20670;DHT22;10494;50.868;4.180;2023-12-14T02:08:37;8.70;99.90
20670;DHT22;10494;50.868;4.180;2023-12-14T02:11:03;8.80;99.90
20670;DHT22;10494;50.868;4.180;2023-12-14T02:13:29;8.80;99.90
20670;DHT22;10494;50.868;4.180;2023-12-14T02:15:54;8.80;99.90
20670;DHT22;10494;50.868;4.180;2023-12-14T02:18:20;9.00;99.90
20670;DHT22;10494;50.868;4.180;2023-12-14T02:20:45;9.00;99.90
20670;DHT22;10494;50.868;4.180;2023-12-14T02:23:11;9.20;99.90
20670;DHT22;10494;50.868;4.180;2023-12-14T02:25:37;9.30;99.90
20670;DHT22;10494;50.868;4.180;2023-12-14T02:28:03;9.20;99.90
20670;DHT22;10494;50.868;4.180;2023-12-14T02:30:28;8.90;99.90
20670;DHT22;10494;50.868;4.180;2023-12-14T02:32:54;8.80;99.90
20670;DHT22;10494;50.868;4.180;2023-12-14T02:35:20;8.70;99.90
20670;DHT22;10494;50.868;4.180;2023-12-14T02:37:45;8.90;99.90
20670;DHT22;10494;50.868;4.180;2023-12-14T02:40:11;9.00;99.90
20670;DHT22;10494;50.868;4.180;2023-12-14T02:42:37;8.80;99.90
20670;DHT22;10494;50.868;4.180;2023-12-14T02:45:03;8.80;99.90
20670;DHT22;10494;50.868;4.180;2023-12-14T02:47:29;8.70;99.90
20670;DHT22;10494;50.868;4.180;2023-12-14T02:49:55;8.50;99.90
20670;DHT22;10494;50.868;4.180;2023-12-14T02:52:22;8.40;99.90
20670;DHT22;10494;50.868;4.180;2023-12-14T02:54:47;8.50;99.90
20670;DHT22;10494;50.868;4.180;2023-12-14T02:57:13;8.40;99.90
20670;DHT22;10494;50.868;4.180;2023-12-14T02:59:39;8.30;99.90
20670;DHT22;10494;50.868;4.180;2023-12-14T03:02:05;7.90;99.90
20670;DHT22;10494;50.868;4.180;2023-12-14T03:04:31;7.70;99.90
20670;DHT22;10494;50.868;4.180;2023-12-14T03:06:57;7.50;99.90
20670;DHT22;10494;50.868;4.180;2023-12-14T03:09:22;7.40;99.90
20670;DHT22;10494;50.868;4.180;2023-12-14T03:11:49;7.40;99.90
20670;DHT22;10494;50.868;4.180;2023-12-14T03:14:14;7.30;99.90
20670;DHT22;10494;50.868;4.180;2023-12-14T03:16:40;7.30;99.90
20670;DHT22;10494;50.868;4.180;2023-12-14T03:19:05;7.40;99.90
20670;DHT22;10494;50.868;4.180;2023-12-14T03:21:31;7.30;99.90
20670;DHT22;10494;50.868;4.180;2023-12-14T03:23:57;7.50;99.90
20670;DHT22;10494;50.868;4.180;2023-12-14T03:26:22;7.50;99.90
20670;DHT22;10494;50.868;4.180;2023-12-14T03:28:48;7.50;99.90
20670;DHT22;10494;50.868;4.180;2023-12-14T03:31:14;7.40;99.90
20670;DHT22;10494;50.868;4.180;2023-12-14T03:33:40;7.30;99.90
20670;DHT22;10494;50.868;4.180;2023-12-14T03:36:06;7.00;99.90
20670;DHT22;10494;50.868;4.180;2023-12-14T03:38:33;6.90;99.90
20670;DHT22;10494;50.868;4.180;2023-12-14T03:40:58;6.90;99.90
20670;DHT22;10494;50.868;4.180;2023-12-14T03:43:24;7.00;99.90
20670;DHT22;10494;50.868;4.180;2023-12-14T03:45:50;7.00;99.90
20670;DHT22;10494;50.868;4.180;2023-12-14T03:48:15;7.00;99.90
20670;DHT22;10494;50.868;4.180;2023-12-14T03:50:41;7.00;99.90
20670;DHT22;10494;50.868;4.180;2023-12-14T03:53:07;7.00;99.90
20670;DHT22;10494;50.868;4.180;2023-12-14T03:55:33;7.00;99.90
20670;DHT22;10494;50.868;4.180;2023-12-14T03:57:59;7.00;99.90
20670;DHT22;10494;50.868;4.180;2023-12-14T04:00:25;7.10;99.90
20670;DHT22;10494;50.868;4.180;2023-12-14T04:02:51;7.10;99.90
20670;DHT22;10494;50.868;4.180;2023-12-14T04:05:16;7.20;99.90
20670;DHT22;10494;50.868;4.180;2023-12-14T04:07:42;7.30;99.90
20670;DHT22;10494;50.868;4.180;2023-12-14T04:10:12;7.00;99.90
20670;DHT22;10494;50.868;4.180;2023-12-14T04:12:38;7.00;99.90
20670;DHT22;10494;50.868;4.180;2023-12-14T04:15:05;7.10;99.90
20670;DHT22;10494;50.868;4.180;2023-12-14T04:17:31;7.20;99.90
20670;DHT22;10494;50.868;4.180;2023-12-14T04:19:57;7.10;99.90
20670;DHT22;10494;50.868;4.180;2023-12-14T04:22:23;6.90;99.90
20670;DHT22;10494;50.868;4.180;2023-12-14T04:24:48;6.80;99.90
20670;DHT22;10494;50.868;4.180;2023-12-14T04:27:15;6.90;99.90
20670;DHT22;10494;50.868;4.180;2023-12-14T04:29:40;7.10;99.90
20670;DHT22;10494;50.868;4.180;2023-12-14T04:32:06;6.90;99.90
20670;DHT22;10494;50.868;4.180;2023-12-14T04:34:32;6.80;99.90
20670;DHT22;10494;50.868;4.180;2023-12-14T04:36:57;6.60;99.90
20670;DHT22;10494;50.868;4.180;2023-12-14T04:39:27;6.50;99.90
20670;DHT22;10494;50.868;4.180;2023-12-14T04:41:53;6.40;99.90
20670;DHT22;10494;50.868;4.180;2023-12-14T04:44:19;6.40;99.90
20670;DHT22;10494;50.868;4.180;2023-12-14T04:46:45;6.50;99.90
20670;DHT22;10494;50.868;4.180;2023-12-14T04:49:11;6.50;99.90
20670;DHT22;10494;50.868;4.180;2023-12-14T04:51:36;6.60;99.90
20670;DHT22;10494;50.868;4.180;2023-12-14T04:54:03;6.60;99.90
20670;DHT22;10494;50.868;4.180;2023-12-14T04:56:29;6.60;99.90
20670;DHT22;10494;50.868;4.180;2023-12-14T04:58:54;6.60;99.90
20670;DHT22;10494;50.868;4.180;2023-12-14T05:01:20;6.70;99.90
20670;DHT22;10494;50.868;4.180;2023-12-14T05:03:45;6.60;99.90
20670;DHT22;10494;50.868;4.180;2023-12-14T05:06:11;6.60;99.90
20670;DHT22;10494;50.868;4.180;2023-12-14T05:08:37;6.80;99.90
20670;DHT22;10494;50.868;4.180;2023-12-14T05:11:03;7.00;99.90
20670;DHT22;10494;50.868;4.180;2023-12-14T05:13:29;6.90;99.90
20670;DHT22;10494;50.868;4.180;2023-12-14T05:15:55;7.10;99.90
20670;DHT22;10494;50.868;4.180;2023-12-14T05:18:20;7.30;99.90
20670;DHT22;10494;50.868;4.180;2023-12-14T05:20:46;7.40;99.90
20670;DHT22;10494;50.868;4.180;2023-12-14T05:23:12;7.50;99.90
20670;DHT22;10494;50.868;4.180;2023-12-14T05:25:38;7.30;99.90
20670;DHT22;10494;50.868;4.180;2023-12-14T05:28:04;7.40;99.90
20670;DHT22;10494;50.868;4.180;2023-12-14T05:30:29;7.50;99.90
20670;DHT22;10494;50.868;4.180;2023-12-14T05:32:55;7.20;99.90
20670;DHT22;10494;50.868;4.180;2023-12-14T05:35:21;6.90;99.90
20670;DHT22;10494;50.868;4.180;2023-12-14T05:37:47;6.80;99.90
20670;DHT22;10494;50.868;4.180;2023-12-14T05:40:13;6.80;99.90
20670;DHT22;10494;50.868;4.180;2023-12-14T05:42:39;6.80;99.90
20670;DHT22;10494;50.868;4.180;2023-12-14T05:45:06;6.90;99.90
20670;DHT22;10494;50.868;4.180;2023-12-14T05:47:32;7.20;99.90
20670;DHT22;10494;50.868;4.180;2023-12-14T05:50:03;7.10;99.90
20670;DHT22;10494;50.868;4.180;2023-12-14T05:52:28;7.10;99.90
20670;DHT22;10494;50.868;4.180;2023-12-14T05:54:55;7.30;99.90
20670;DHT22;10494;50.868;4.180;2023-12-14T05:57:20;7.40;99.90
20670;DHT22;10494;50.868;4.180;2023-12-14T05:59:46;7.50;99.90
20670;DHT22;10494;50.868;4.180;2023-12-14T06:02:12;7.50;99.90
20670;DHT22;10494;50.868;4.180;2023-12-14T06:04:37;7.60;99.90
20670;DHT22;10494;50.868;4.180;2023-12-14T06:07:03;7.70;99.90
20670;DHT22;10494;50.868;4.180;2023-12-14T06:09:29;7.50;99.90
20670;DHT22;10494;50.868;4.180;2023-12-14T06:12:03;7.50;99.90
20670;DHT22;10494;50.868;4.180;2023-12-14T06:14:29;7.50;99.90
20670;DHT22;10494;50.868;4.180;2023-12-14T06:16:55;7.50;99.90
20670;DHT22;10494;50.868;4.180;2023-12-14T06:19:21;7.40;99.90
20670;DHT22;10494;50.868;4.180;2023-12-14T06:21:48;7.50;99.90
20670;DHT22;10494;50.868;4.180;2023-12-14T06:24:14;7.70;99.90
20670;DHT22;10494;50.868;4.180;2023-12-14T06:26:46;7.50;99.90
20670;DHT22;10494;50.868;4.180;2023-12-14T06:29:12;7.30;99.90
20670;DHT22;10494;50.868;4.180;2023-12-14T06:31:38;7.30;99.90
20670;DHT22;10494;50.868;4.180;2023-12-14T06:34:05;7.30;99.90
20670;DHT22;10494;50.868;4.180;2023-12-14T06:36:31;7.30;99.90
20670;DHT22;10494;50.868;4.180;2023-12-14T06:38:59;7.50;99.90
20670;DHT22;10494;50.868;4.180;2023-12-14T06:41:26;7.50;99.90
20670;DHT22;10494;50.868;4.180;2023-12-14T06:43:52;7.30;99.90
20670;DHT22;10494;50.868;4.180;2023-12-14T06:46:18;7.10;99.90
20670;DHT22;10494;50.868;4.180;2023-12-14T06:48:44;7.00;99.90
20670;DHT22;10494;50.868;4.180;2023-12-14T06:51:10;7.00;99.90
20670;DHT22;10494;50.868;4.180;2023-12-14T06:53:35;6.90;99.90
20670;DHT22;10494;50.868;4.180;2023-12-14T06:56:04;6.80;99.90
20670;DHT22;10494;50.868;4.180;2023-12-14T06:58:30;6.90;99.90
20670;DHT22;10494;50.868;4.180;2023-12-14T07:00:57;7.00;99.90
20670;DHT22;10494;50.868;4.180;2023-12-14T07:03:22;6.80;99.90
20670;DHT22;10494;50.868;4.180;2023-12-14T07:05:48;6.80;99.90
20670;DHT22;10494;50.868;4.180;2023-12-14T07:08:13;6.80;99.90
20670;DHT22;10494;50.868;4.180;2023-12-14T07:10:41;6.80;99.90
20670;DHT22;10494;50.868;4.180;2023-12-14T07:13:07;6.80;99.90
20670;DHT22;10494;50.868;4.180;2023-12-14T07:15:34;6.80;99.90
20670;DHT22;10494;50.868;4.180;2023-12-14T07:17:59;6.80;99.90
20670;DHT22;10494;50.868;4.180;2023-12-14T07:20:25;6.80;99.90
20670;DHT22;10494;50.868;4.180;2023-12-14T07:22:50;6.80;99.90
20670;DHT22;10494;50.868;4.180;2023-12-14T07:25:16;6.90;99.90
20670;DHT22;10494;50.868;4.180;2023-12-14T07:27:42;7.00;99.90
20670;DHT22;10494;50.868;4.180;2023-12-14T07:30:09;7.00;99.90
20670;DHT22;10494;50.868;4.180;2023-12-14T07:32:35;7.20;99.90
20670;DHT22;10494;50.868;4.180;2023-12-14T07:35:00;7.40;99.90
20670;DHT22;10494;50.868;4.180;2023-12-14T07:37:26;7.50;99.90
20670;DHT22;10494;50.868;4.180;2023-12-14T07:39:52;7.60;99.90
20670;DHT22;10494;50.868;4.180;2023-12-14T07:42:17;7.70;99.90
20670;DHT22;10494;50.868;4.180;2023-12-14T07:44:46;7.70;99.90
20670;DHT22;10494;50.868;4.180;2023-12-14T07:47:11;7.70;99.90
20670;DHT22;10494;50.868;4.180;2023-12-14T07:49:37;7.70;99.90
20670;DHT22;10494;50.868;4.180;2023-12-14T07:52:03;7.70;99.90
20670;DHT22;10494;50.868;4.180;2023-12-14T07:54:29;7.70;99.90
20670;DHT22;10494;50.868;4.180;2023-12-14T07:56:54;7.70;99.90
20670;DHT22;10494;50.868;4.180;2023-12-14T07:59:20;7.70;99.90
20670;DHT22;10494;50.868;4.180;2023-12-14T08:01:46;7.90;99.90
20670;DHT22;10494;50.868;4.180;2023-12-14T08:04:12;8.00;99.90
20670;DHT22;10494;50.868;4.180;2023-12-14T08:06:38;8.10;99.90
20670;DHT22;10494;50.868;4.180;2023-12-14T08:09:05;8.00;99.90
20670;DHT22;10494;50.868;4.180;2023-12-14T08:11:31;8.00;99.90
20670;DHT22;10494;50.868;4.180;2023-12-14T08:13:57;8.00;99.90
20670;DHT22;10494;50.868;4.180;2023-12-14T08:16:23;8.10;99.90
20670;DHT22;10494;50.868;4.180;2023-12-14T08:18:49;8.20;99.90
20670;DHT22;10494;50.868;4.180;2023-12-14T08:21:15;8.20;99.90
20670;DHT22;10494;50.868;4.180;2023-12-14T08:23:42;8.20;99.90
20670;DHT22;10494;50.868;4.180;2023-12-14T08:26:07;8.20;99.90
20670;DHT22;10494;50.868;4.180;2023-12-14T08:28:35;8.10;99.90
20670;DHT22;10494;50.868;4.180;2023-12-14T08:31:01;8.20;99.90
20670;DHT22;10494;50.868;4.180;2023-12-14T08:33:29;8.20;99.90
20670;DHT22;10494;50.868;4.180;2023-12-14T08:35:55;8.10;99.90
20670;DHT22;10494;50.868;4.180;2023-12-14T08:38:21;8.30;99.90
20670;DHT22;10494;50.868;4.180;2023-12-14T08:40:46;8.90;99.90
20670;DHT22;10494;50.868;4.180;2023-12-14T08:43:12;9.50;99.90
20670;DHT22;10494;50.868;4.180;2023-12-14T08:45:38;10.20;99.90
20670;DHT22;10494;50.868;4.180;2023-12-14T08:48:04;10.80;96.00
20670;DHT22;10494;50.868;4.180;2023-12-14T08:50:29;11.20;33.90
20670;DHT22;10494;50.868;4.180;2023-12-14T08:52:55;11.30;99.90
20670;DHT22;10494;50.868;4.180;2023-12-14T08:55:21;11.70;56.40
20670;DHT22;10494;50.868;4.180;2023-12-14T08:57:47;12.00;99.90
20670;DHT22;10494;50.868;4.180;2023-12-14T09:00:13;12.10;1.00
20670;DHT22;10494;50.868;4.180;2023-12-14T09:02:39;12.00;18.20
20670;DHT22;10494;50.868;4.180;2023-12-14T09:05:05;11.50;1.00
20670;DHT22;10494;50.868;4.180;2023-12-14T09:07:31;11.10;78.50
20670;DHT22;10494;50.868;4.180;2023-12-14T09:09:57;10.70;99.90
20670;DHT22;10494;50.868;4.180;2023-12-14T09:12:23;10.40;1.00
20670;DHT22;10494;50.868;4.180;2023-12-14T09:14:49;10.20;99.90
20670;DHT22;10494;50.868;4.180;2023-12-14T09:17:14;10.30;99.90
20670;DHT22;10494;50.868;4.180;2023-12-14T09:19:40;10.20;99.90
20670;DHT22;10494;50.868;4.180;2023-12-14T09:22:05;10.10;1.00
20670;DHT22;10494;50.868;4.180;2023-12-14T09:24:31;10.00;1.00
20670;DHT22;10494;50.868;4.180;2023-12-14T09:26:57;9.90;99.90
20670;DHT22;10494;50.868;4.180;2023-12-14T09:29:22;9.90;99.90
20670;DHT22;10494;50.868;4.180;2023-12-14T09:31:48;9.90;1.00
20670;DHT22;10494;50.868;4.180;2023-12-14T09:34:14;9.80;1.00
20670;DHT22;10494;50.868;4.180;2023-12-14T09:36:40;9.80;1.00
20670;DHT22;10494;50.868;4.180;2023-12-14T09:39:05;9.70;1.00
20670;DHT22;10494;50.868;4.180;2023-12-14T09:41:38;9.60;1.00
20670;DHT22;10494;50.868;4.180;2023-12-14T09:44:05;9.70;99.90
20670;DHT22;10494;50.868;4.180;2023-12-14T09:46:34;9.60;99.90
20670;DHT22;10494;50.868;4.180;2023-12-14T09:49:02;9.60;99.90
20670;DHT22;10494;50.868;4.180;2023-12-14T09:51:28;9.60;1.00
20670;DHT22;10494;50.868;4.180;2023-12-14T09:53:54;9.70;99.90
20670;DHT22;10494;50.868;4.180;2023-12-14T09:56:26;9.60;1.00
20670;DHT22;10494;50.868;4.180;2023-12-14T09:58:53;9.80;1.00
20670;DHT22;10494;50.868;4.180;2023-12-14T10:01:26;9.60;99.90
20670;DHT22;10494;50.868;4.180;2023-12-14T10:04:12;9.60;1.00
20670;DHT22;10494;50.868;4.180;2023-12-14T10:06:39;9.60;1.00
20670;DHT22;10494;50.868;4.180;2023-12-14T10:09:05;9.60;1.00
20670;DHT22;10494;50.868;4.180;2023-12-14T10:11:44;9.60;1.00
20670;DHT22;10494;50.868;4.180;2023-12-14T10:14:19;9.50;1.00
20670;DHT22;10494;50.868;4.180;2023-12-14T10:16:50;9.60;99.90
20670;DHT22;10494;50.868;4.180;2023-12-14T10:19:20;9.70;99.90
20670;DHT22;10494;50.868;4.180;2023-12-14T10:21:49;9.80;1.00
20670;DHT22;10494;50.868;4.180;2023-12-14T10:24:16;9.80;1.00
20670;DHT22;10494;50.868;4.180;2023-12-14T10:26:42;9.80;1.00
20670;DHT22;10494;50.868;4.180;2023-12-14T10:29:09;9.70;1.00
20670;DHT22;10494;50.868;4.180;2023-12-14T10:31:36;9.80;69.30
20670;DHT22;10494;50.868;4.180;2023-12-14T10:34:05;9.80;99.90
20670;DHT22;10494;50.868;4.180;2023-12-14T10:36:31;9.90;99.90
20670;DHT22;10494;50.868;4.180;2023-12-14T10:38:59;9.80;1.00
20670;DHT22;10494;50.868;4.180;2023-12-14T10:41:25;9.90;1.00
20670;DHT22;10494;50.868;4.180;2023-12-14T10:43:54;10.00;1.00
20670;DHT22;10494;50.868;4.180;2023-12-14T10:46:20;10.10;1.00
20670;DHT22;10494;50.868;4.180;2023-12-14T10:48:52;10.10;99.90
20670;DHT22;10494;50.868;4.180;2023-12-14T10:51:20;10.10;1.00
20670;DHT22;10494;50.868;4.180;2023-12-14T10:53:47;10.00;99.90
20670;DHT22;10494;50.868;4.180;2023-12-14T10:56:15;10.10;1.00
20670;DHT22;10494;50.868;4.180;2023-12-14T10:58:45;10.10;1.00
20670;DHT22;10494;50.868;4.180;2023-12-14T11:01:20;10.10;99.90
20670;DHT22;10494;50.868;4.180;2023-12-14T11:03:47;10.10;99.90
20670;DHT22;10494;50.868;4.180;2023-12-14T11:06:26;10.30;1.00
20670;DHT22;10494;50.868;4.180;2023-12-14T11:08:58;10.50;1.00
20670;DHT22;10494;50.868;4.180;2023-12-14T11:11:28;10.50;99.90
20670;DHT22;10494;50.868;4.180;2023-12-14T11:13:54;10.60;1.00
20670;DHT22;10494;50.868;4.180;2023-12-14T11:16:23;10.50;1.00
20670;DHT22;10494;50.868;4.180;2023-12-14T11:21:52;10.40;99.90
20670;DHT22;10494;50.868;4.180;2023-12-14T11:24:22;10.30;99.90
20670;DHT22;10494;50.868;4.180;2023-12-14T11:26:51;10.40;99.90
20670;DHT22;10494;50.868;4.180;2023-12-14T11:29:18;10.30;99.90
20670;DHT22;10494;50.868;4.180;2023-12-14T11:31:44;10.00;1.00
20670;DHT22;10494;50.868;4.180;2023-12-14T11:34:11;10.10;20.10
20670;DHT22;10494;50.868;4.180;2023-12-14T11:36:37;9.90;99.90
20670;DHT22;10494;50.868;4.180;2023-12-14T11:39:07;10.00;1.00
20670;DHT22;10494;50.868;4.180;2023-12-14T11:41:33;10.00;1.00
20670;DHT22;10494;50.868;4.180;2023-12-14T11:43:59;10.00;1.00
20670;DHT22;10494;50.868;4.180;2023-12-14T11:46:25;10.00;1.00
20670;DHT22;10494;50.868;4.180;2023-12-14T11:48:50;10.10;1.00
20670;DHT22;10494;50.868;4.180;2023-12-14T11:51:17;10.20;1.00
20670;DHT22;10494;50.868;4.180;2023-12-14T11:53:46;10.20;1.00
20670;DHT22;10494;50.868;4.180;2023-12-14T11:56:14;10.20;1.00
20670;DHT22;10494;50.868;4.180;2023-12-14T11:58:43;10.30;1.00
20670;DHT22;10494;50.868;4.180;2023-12-14T12:01:14;10.40;99.90
20670;DHT22;10494;50.868;4.180;2023-12-14T12:03:40;10.50;1.00
20670;DHT22;10494;50.868;4.180;2023-12-14T12:06:06;10.30;99.90
20670;DHT22;10494;50.868;4.180;2023-12-14T12:08:40;10.20;1.00
20670;DHT22;10494;50.868;4.180;2023-12-14T12:11:06;10.20;1.00
20670;DHT22;10494;50.868;4.180;2023-12-14T12:13:34;10.30;1.00
20670;DHT22;10494;50.868;4.180;2023-12-14T12:16:00;10.30;1.00
20670;DHT22;10494;50.868;4.180;2023-12-14T12:18:25;10.30;1.00
20670;DHT22;10494;50.868;4.180;2023-12-14T12:20:52;10.40;99.90
20670;DHT22;10494;50.868;4.180;2023-12-14T12:23:18;10.50;1.00
20670;DHT22;10494;50.868;4.180;2023-12-14T12:25:44;10.60;30.00
20670;DHT22;10494;50.868;4.180;2023-12-14T12:28:10;10.40;99.90
20670;DHT22;10494;50.868;4.180;2023-12-14T12:30:35;10.30;1.00
20670;DHT22;10494;50.868;4.180;2023-12-14T12:33:01;10.40;1.00
20670;DHT22;10494;50.868;4.180;2023-12-14T12:35:27;10.30;16.30
20670;DHT22;10494;50.868;4.180;2023-12-14T12:37:55;10.20;99.90
20670;DHT22;10494;50.868;4.180;2023-12-14T12:40:24;10.20;1.00
20670;DHT22;10494;50.868;4.180;2023-12-14T12:42:55;10.40;1.00
20670;DHT22;10494;50.868;4.180;2023-12-14T12:45:20;10.60;1.00
20670;DHT22;10494;50.868;4.180;2023-12-14T12:47:53;10.60;1.00
20670;DHT22;10494;50.868;4.180;2023-12-14T12:50:19;10.40;1.00
20670;DHT22;10494;50.868;4.180;2023-12-14T12:52:46;10.30;99.90
20670;DHT22;10494;50.868;4.180;2023-12-14T12:55:14;10.40;99.90
20670;DHT22;10494;50.868;4.180;2023-12-14T12:57:40;10.30;99.90
20670;DHT22;10494;50.868;4.180;2023-12-14T13:00:07;10.40;99.90
20670;DHT22;10494;50.868;4.180;2023-12-14T13:02:37;10.40;1.00
20670;DHT22;10494;50.868;4.180;2023-12-14T13:05:04;10.50;99.90
20670;DHT22;10494;50.868;4.180;2023-12-14T13:07:31;10.60;99.90
20670;DHT22;10494;50.868;4.180;2023-12-14T13:09:57;10.60;1.00
20670;DHT22;10494;50.868;4.180;2023-12-14T13:12:22;10.60;55.30
20670;DHT22;10494;50.868;4.180;2023-12-14T13:14:48;10.60;99.90
20670;DHT22;10494;50.868;4.180;2023-12-14T13:17:14;10.50;99.90
20670;DHT22;10494;50.868;4.180;2023-12-14T13:19:42;10.50;99.90
20670;DHT22;10494;50.868;4.180;2023-12-14T13:22:07;10.40;1.00
20670;DHT22;10494;50.868;4.180;2023-12-14T13:24:33;10.50;99.90
20670;DHT22;10494;50.868;4.180;2023-12-14T13:26:59;10.60;1.00
20670;DHT22;10494;50.868;4.180;2023-12-14T13:29:25;10.60;1.00
20670;DHT22;10494;50.868;4.180;2023-12-14T13:31:50;10.60;1.00
20670;DHT22;10494;50.868;4.180;2023-12-14T13:34:16;10.60;1.00
20670;DHT22;10494;50.868;4.180;2023-12-14T13:36:41;10.60;1.00
20670;DHT22;10494;50.868;4.180;2023-12-14T13:39:07;10.60;1.00
20670;DHT22;10494;50.868;4.180;2023-12-14T13:41:33;10.60;1.00
20670;DHT22;10494;50.868;4.180;2023-12-14T13:44:00;10.70;99.90
20670;DHT22;10494;50.868;4.180;2023-12-14T13:46:26;10.60;1.00
20670;DHT22;10494;50.868;4.180;2023-12-14T13:48:52;10.40;99.90
20670;DHT22;10494;50.868;4.180;2023-12-14T13:51:18;10.40;4.70
20670;DHT22;10494;50.868;4.180;2023-12-14T13:53:44;10.50;1.00
20670;DHT22;10494;50.868;4.180;2023-12-14T13:56:10;10.40;99.90
20670;DHT22;10494;50.868;4.180;2023-12-14T13:58:36;10.50;99.90
20670;DHT22;10494;50.868;4.180;2023-12-14T14:01:04;10.40;1.00
20670;DHT22;10494;50.868;4.180;2023-12-14T14:03:35;10.40;1.00
20670;DHT22;10494;50.868;4.180;2023-12-14T14:06:01;10.20;1.00
20670;DHT22;10494;50.868;4.180;2023-12-14T14:08:28;10.40;1.00
20670;DHT22;10494;50.868;4.180;2023-12-14T14:10:53;10.30;1.00
20670;DHT22;10494;50.868;4.180;2023-12-14T14:13:19;10.40;1.00
20670;DHT22;10494;50.868;4.180;2023-12-14T14:15:47;10.30;1.00
20670;DHT22;10494;50.868;4.180;2023-12-14T14:18:13;10.40;1.00
20670;DHT22;10494;50.868;4.180;2023-12-14T14:20:38;10.40;1.00
20670;DHT22;10494;50.868;4.180;2023-12-14T14:23:04;10.50;1.00
20670;DHT22;10494;50.868;4.180;2023-12-14T14:25:30;10.40;1.00
20670;DHT22;10494;50.868;4.180;2023-12-14T14:27:56;10.40;1.00
20670;DHT22;10494;50.868;4.180;2023-12-14T14:30:21;10.40;1.00
20670;DHT22;10494;50.868;4.180;2023-12-14T14:32:47;10.40;99.90
20670;DHT22;10494;50.868;4.180;2023-12-14T14:35:13;10.30;99.90
20670;DHT22;10494;50.868;4.180;2023-12-14T14:37:38;10.30;1.00
20670;DHT22;10494;50.868;4.180;2023-12-14T14:40:05;10.40;99.90
20670;DHT22;10494;50.868;4.180;2023-12-14T14:42:31;10.40;95.70
20670;DHT22;10494;50.868;4.180;2023-12-14T14:44:57;10.30;99.90
20670;DHT22;10494;50.868;4.180;2023-12-14T14:47:23;10.30;1.00
20670;DHT22;10494;50.868;4.180;2023-12-14T14:49:49;10.30;1.00
20670;DHT22;10494;50.868;4.180;2023-12-14T14:52:14;10.10;99.90
20670;DHT22;10494;50.868;4.180;2023-12-14T14:54:41;10.00;99.90
20670;DHT22;10494;50.868;4.180;2023-12-14T14:57:06;10.00;99.90
20670;DHT22;10494;50.868;4.180;2023-12-14T14:59:32;9.90;99.90
20670;DHT22;10494;50.868;4.180;2023-12-14T15:01:58;9.90;1.00
20670;DHT22;10494;50.868;4.180;2023-12-14T15:04:26;10.00;99.90
20670;DHT22;10494;50.868;4.180;2023-12-14T15:06:52;10.00;99.90
20670;DHT22;10494;50.868;4.180;2023-12-14T15:09:18;9.80;99.90
20670;DHT22;10494;50.868;4.180;2023-12-14T15:11:43;9.80;1.00
20670;DHT22;10494;50.868;4.180;2023-12-14T15:14:09;9.80;1.00
20670;DHT22;10494;50.868;4.180;2023-12-14T15:16:34;9.60;1.00
20670;DHT22;10494;50.868;4.180;2023-12-14T15:19:01;9.60;10.50
20670;DHT22;10494;50.868;4.180;2023-12-14T15:21:27;9.60;99.90
20670;DHT22;10494;50.868;4.180;2023-12-14T15:23:52;9.60;99.90
20670;DHT22;10494;50.868;4.180;2023-12-14T15:26:19;9.70;1.00
20670;DHT22;10494;50.868;4.180;2023-12-14T15:28:45;9.60;99.90
20670;DHT22;10494;50.868;4.180;2023-12-14T15:31:11;9.70;99.90
20670;DHT22;10494;50.868;4.180;2023-12-14T15:33:37;9.80;99.90
20670;DHT22;10494;50.868;4.180;2023-12-14T15:36:02;9.80;73.00
20670;DHT22;10494;50.868;4.180;2023-12-14T15:38:28;9.70;1.00
20670;DHT22;10494;50.868;4.180;2023-12-14T15:40:54;9.70;1.00
20670;DHT22;10494;50.868;4.180;2023-12-14T15:43:20;9.70;30.10
20670;DHT22;10494;50.868;4.180;2023-12-14T15:45:47;9.60;99.90